createdAt,value
2018-03-19T00:00:49.085Z,2.80
2018-03-19T00:03:17.543Z,3.30
2018-03-19T00:05:45.872Z,2.60
2018-03-19T00:08:14.152Z,2.83
2018-03-19T00:10:43.193Z,3.13
2018-03-19T00:13:12.080Z,2.67
2018-03-19T00:15:40.880Z,3.10
2018-03-19T00:18:09.961Z,3.83
2018-03-19T00:20:38.260Z,3.00
2018-03-19T00:23:06.640Z,2.27
2018-03-19T00:25:34.916Z,3.03
2018-03-19T00:28:03.253Z,3.30
2018-03-19T00:30:32.304Z,3.03
2018-03-19T00:33:00.580Z,2.97
2018-03-19T00:35:28.864Z,2.80
2018-03-19T00:37:57.231Z,3.90
2018-03-19T00:40:26.268Z,3.20
2018-03-19T00:42:55.507Z,3.40
2018-03-19T00:45:23.810Z,3.33
2018-03-19T00:47:52.084Z,2.67
2018-03-19T00:50:20.444Z,3.17
2018-03-19T00:52:48.738Z,3.30
2018-03-19T00:55:17.020Z,3.67
2018-03-19T00:57:45.387Z,3.37
2018-03-19T01:00:13.649Z,3.17
2018-03-19T01:02:42.677Z,2.87
2018-03-19T01:05:11.033Z,3.87
2018-03-19T01:07:39.428Z,3.93
2018-03-19T01:10:08.529Z,3.00
2018-03-19T01:12:36.812Z,3.20
2018-03-19T01:15:05.121Z,3.73
2018-03-19T01:17:33.428Z,2.97
2018-03-19T01:20:01.737Z,3.90
2018-03-19T01:22:30.108Z,3.20
2018-03-19T01:24:58.393Z,3.27
2018-03-19T01:27:26.860Z,4.60
2018-03-19T01:29:55.252Z,3.20
2018-03-19T01:32:23.540Z,4.47
2018-03-19T01:34:52.257Z,3.27
2018-03-19T01:37:20.549Z,3.03
2018-03-19T01:39:49.608Z,3.13
2018-03-19T01:42:17.897Z,3.40
2018-03-19T01:44:46.168Z,3.20
2018-03-19T01:47:14.439Z,3.13
2018-03-19T01:49:43.037Z,3.03
2018-03-19T01:52:11.320Z,3.03
2018-03-19T01:54:39.664Z,2.47
2018-03-19T01:57:07.956Z,3.33
2018-03-19T01:59:36.224Z,2.83
2018-03-19T02:02:04.600Z,3.10
2018-03-19T02:04:32.889Z,3.90
2018-03-19T02:07:01.200Z,3.50
2018-03-19T02:09:29.748Z,4.10
2018-03-19T02:11:58.128Z,2.90
2018-03-19T02:14:26.525Z,2.87
2018-03-19T02:16:55.012Z,3.27
2018-03-19T02:19:23.601Z,2.90
2018-03-19T02:21:51.880Z,4.00
2018-03-19T02:24:20.937Z,3.93
2018-03-19T02:26:49.220Z,3.60
2018-03-19T02:29:18.316Z,3.50
2018-03-19T02:31:47.333Z,3.83
2018-03-19T02:34:15.832Z,3.87
2018-03-19T02:36:44.112Z,3.30
2018-03-19T02:39:12.609Z,3.10
2018-03-19T02:41:41.956Z,3.27
2018-03-19T02:44:10.697Z,3.80
2018-03-19T02:46:39.744Z,4.17
2018-03-19T02:49:08.120Z,3.40
2018-03-19T02:51:37.161Z,3.90
2018-03-19T02:54:05.628Z,3.43
2018-03-19T02:56:34.459Z,3.70
2018-03-19T02:59:02.746Z,3.73
2018-03-19T03:01:31.015Z,3.50
2018-03-19T03:03:59.436Z,3.07
2018-03-19T03:06:27.708Z,4.03
2018-03-19T03:08:55.976Z,3.20
2018-03-19T03:11:24.664Z,3.53
2018-03-19T03:13:53.377Z,3.10
2018-03-19T03:16:21.653Z,2.97
2018-03-19T03:18:50.062Z,3.17
2018-03-19T03:21:19.024Z,3.40
2018-03-19T03:23:47.333Z,4.10
2018-03-19T03:26:15.607Z,3.90
2018-03-19T03:28:43.890Z,3.23
2018-03-19T03:31:13.249Z,3.53
2018-03-19T03:33:41.516Z,3.90
2018-03-19T03:36:09.841Z,4.10
2018-03-19T03:38:39.636Z,3.10
2018-03-19T03:41:08.835Z,3.80
2018-03-19T03:43:37.699Z,3.97
2018-03-19T03:46:06.079Z,3.60
2018-03-19T03:48:34.407Z,3.90
2018-03-19T03:51:03.451Z,3.30
2018-03-19T03:53:32.417Z,3.60
2018-03-19T03:56:02.384Z,4.13
2018-03-19T03:58:30.688Z,3.73
2018-03-19T04:01:00.876Z,3.30
2018-03-19T04:03:29.141Z,3.77
2018-03-19T04:05:57.451Z,3.43
2018-03-19T04:08:26.356Z,3.33
2018-03-19T04:10:54.641Z,3.40
2018-03-19T04:13:23.789Z,3.60
2018-03-19T04:15:52.236Z,3.50
2018-03-19T04:18:21.371Z,3.60
2018-03-19T04:20:49.687Z,2.60
2018-03-19T04:23:17.965Z,4.53
2018-03-19T04:25:47.846Z,3.83
2018-03-19T04:28:16.144Z,3.50
2018-03-19T04:30:44.663Z,3.30
2018-03-19T04:33:13.740Z,3.80
2018-03-19T04:35:42.037Z,3.13
2018-03-19T04:38:11.078Z,4.37
2018-03-19T04:40:39.360Z,3.53
2018-03-19T04:43:07.733Z,3.70
2018-03-19T04:45:36.092Z,4.40
2018-03-19T04:48:04.382Z,4.50
2018-03-19T04:50:32.695Z,4.30
2018-03-19T04:53:01.174Z,4.03
2018-03-19T04:55:30.184Z,3.93
2018-03-19T04:57:58.456Z,3.67
2018-03-19T05:00:27.193Z,4.40
2018-03-19T05:02:55.572Z,3.33
2018-03-19T05:05:23.849Z,4.10
2018-03-19T05:07:52.295Z,4.13
2018-03-19T05:10:20.592Z,4.80
2018-03-19T05:12:49.677Z,4.40
2018-03-19T05:15:18.810Z,4.20
2018-03-19T05:17:47.081Z,3.87
2018-03-19T05:20:15.389Z,4.67
2018-03-19T05:22:44.073Z,4.40
2018-03-19T05:25:12.340Z,4.17
2018-03-19T05:27:40.624Z,5.00
2018-03-19T05:30:08.919Z,4.13
2018-03-19T05:32:37.218Z,4.63
2018-03-19T05:35:05.496Z,4.37
2018-03-19T05:37:33.800Z,5.00
2018-03-19T05:40:02.085Z,4.97
2018-03-19T05:42:30.363Z,4.97
2018-03-19T05:44:58.665Z,5.37
2018-03-19T05:47:27.178Z,5.03
2018-03-19T05:49:56.109Z,4.97
2018-03-19T05:52:25.258Z,4.63
2018-03-19T05:54:53.549Z,5.60
2018-03-19T05:57:21.847Z,4.93
2018-03-19T05:59:50.980Z,5.77
2018-03-19T06:02:19.596Z,4.37
2018-03-19T06:04:48.314Z,4.30
2018-03-19T06:07:17.469Z,4.10
2018-03-19T06:09:45.744Z,4.57
2018-03-19T06:12:14.132Z,5.20
2018-03-19T06:14:42.425Z,4.10
2018-03-19T06:17:10.692Z,4.47
2018-03-19T06:19:39.014Z,3.70
2018-03-19T06:22:08.057Z,4.10
2018-03-19T06:24:36.348Z,3.43
2018-03-19T06:27:04.654Z,4.43
2018-03-19T06:29:34.429Z,4.80
2018-03-19T06:32:02.701Z,4.67
2018-03-19T06:34:31.011Z,4.70
2018-03-19T06:36:59.605Z,4.20
2018-03-19T06:39:28.657Z,3.70
2018-03-19T06:41:56.994Z,4.40
2018-03-19T06:44:26.044Z,4.70
2018-03-19T06:46:54.828Z,3.77
2018-03-19T06:49:23.120Z,4.27
2018-03-19T06:51:51.709Z,3.80
2018-03-19T06:54:20.748Z,3.70
2018-03-19T06:56:49.868Z,4.77
2018-03-19T06:59:18.160Z,4.33
2018-03-19T07:01:46.429Z,4.00
2018-03-19T07:04:14.748Z,4.47
2018-03-19T07:06:43.899Z,4.40
2018-03-19T07:09:12.356Z,5.03
2018-03-19T07:11:41.277Z,4.47
2018-03-19T07:14:09.599Z,4.43
2018-03-19T07:16:37.923Z,4.17
2018-03-19T07:19:06.317Z,3.50
2018-03-19T07:21:34.588Z,4.20
2018-03-19T07:24:02.877Z,4.23
2018-03-19T07:26:31.344Z,4.60
2018-03-19T07:28:59.615Z,4.87
2018-03-19T07:31:28.075Z,4.57
2018-03-19T07:33:57.321Z,4.83
2018-03-19T07:36:25.692Z,5.43
2018-03-19T07:38:54.390Z,4.90
2018-03-19T07:41:22.790Z,4.70
2018-03-19T07:43:51.089Z,5.20
2018-03-19T07:46:20.448Z,6.03
2018-03-19T07:48:49.240Z,5.10
2018-03-19T07:51:18.353Z,5.37
2018-03-19T07:53:46.680Z,4.80
2018-03-19T07:56:15.029Z,4.57
2018-03-19T07:58:43.331Z,4.87
2018-03-19T08:01:12.924Z,4.60
2018-03-19T08:03:41.377Z,4.10
2018-03-19T08:06:10.039Z,4.63
2018-03-19T08:08:38.427Z,4.20
2018-03-19T08:11:06.704Z,3.80
2018-03-19T08:13:35.002Z,4.87
2018-03-19T08:16:03.313Z,4.43
2018-03-19T08:18:32.373Z,4.10
2018-03-19T08:21:00.645Z,4.30
2018-03-19T08:23:28.980Z,4.63
2018-03-19T08:25:57.328Z,5.97
2018-03-19T08:28:25.564Z,4.50
2018-03-19T08:30:54.200Z,3.93
2018-03-19T08:33:23.258Z,4.20
2018-03-19T08:35:51.528Z,3.80
2018-03-19T08:38:19.819Z,3.80
2018-03-19T08:40:48.106Z,4.20
2018-03-19T08:43:16.421Z,3.73
2018-03-19T08:45:45.890Z,4.13
2018-03-19T08:48:14.164Z,4.57
2018-03-19T08:50:42.687Z,4.00
2018-03-19T08:53:10.988Z,3.97
2018-03-19T08:55:40.533Z,3.30
2018-03-19T08:58:08.807Z,4.10
2018-03-19T09:00:37.251Z,3.87
2018-03-19T09:03:05.752Z,3.80
2018-03-19T09:05:34.204Z,3.93
2018-03-19T09:08:03.109Z,4.30
2018-03-19T09:10:31.422Z,3.80
2018-03-19T09:12:59.728Z,3.50
2018-03-19T09:15:28.788Z,3.80
2018-03-19T09:17:57.148Z,4.30
2018-03-19T09:20:25.900Z,3.97
2018-03-19T09:22:54.944Z,3.40
2018-03-19T09:25:23.216Z,3.37
2018-03-19T09:27:51.535Z,3.70
2018-03-19T09:30:19.921Z,2.70
2018-03-19T09:32:48.988Z,3.10
2018-03-19T09:35:17.292Z,2.53
2018-03-19T09:37:45.560Z,3.60
2018-03-19T09:40:14.706Z,2.97
2018-03-19T09:42:44.642Z,3.27
2018-03-19T09:45:12.921Z,3.23
2018-03-19T09:47:41.203Z,3.23
2018-03-19T09:50:09.518Z,3.60
2018-03-19T09:52:38.668Z,3.10
2018-03-19T09:55:07.759Z,2.73
2018-03-19T09:57:36.557Z,3.20
2018-03-19T10:00:04.840Z,3.77
2018-03-19T10:02:33.120Z,2.97
2018-03-19T10:05:01.489Z,3.57
2018-03-19T10:07:30.240Z,2.87
2018-03-19T10:09:59.306Z,3.10
2018-03-19T10:12:28.270Z,2.50
2018-03-19T10:14:57.917Z,3.00
2018-03-19T10:17:26.816Z,4.03
2018-03-19T10:26:41.488Z,2.60
2018-03-19T10:29:09.748Z,3.50
2018-03-19T10:31:38.020Z,4.27
2018-03-19T10:34:06.570Z,4.20
2018-03-19T10:36:35.628Z,3.20
2018-03-19T10:39:03.900Z,3.23
2018-03-19T10:41:32.260Z,3.20
2018-03-19T10:44:01.636Z,3.50
2018-03-19T10:46:30.764Z,3.30
2018-03-19T10:48:59.023Z,2.73
2018-03-19T10:51:27.297Z,2.97
2018-03-19T10:53:55.585Z,3.97
2018-03-19T10:56:23.844Z,3.67
2018-03-19T10:58:53.380Z,3.23
2018-03-19T11:01:43.187Z,2.73
2018-03-19T11:04:11.480Z,3.07
2018-03-19T11:06:45.709Z,3.97
2018-03-19T11:09:19.568Z,4.00
2018-03-19T11:11:47.854Z,2.80
2018-03-19T11:14:16.124Z,2.80
2018-03-19T11:16:44.401Z,2.77
2018-03-19T11:19:12.796Z,3.10
2018-03-19T11:21:41.282Z,3.13
2018-03-19T11:24:10.278Z,3.10
2018-03-19T11:26:38.544Z,3.40
2018-03-19T11:29:06.856Z,3.60
2018-03-19T11:31:36.049Z,3.90
2018-03-19T11:34:04.315Z,3.50
2018-03-19T11:36:32.678Z,4.47
2018-03-19T11:39:01.148Z,3.30
2018-03-19T11:41:29.442Z,4.00
2018-03-19T11:43:58.056Z,3.57
2018-03-19T11:46:26.608Z,3.33
2018-03-19T11:48:55.583Z,4.23
2018-03-19T11:51:23.883Z,4.00
2018-03-19T11:53:52.164Z,3.70
2018-03-19T11:56:20.456Z,4.87
2018-03-19T11:58:49.145Z,3.20
2018-03-19T12:01:17.404Z,3.80
2018-03-19T12:03:45.707Z,3.93
2018-03-19T12:06:14.834Z,3.57
2018-03-19T12:08:44.046Z,4.53
2018-03-19T12:11:12.348Z,4.00
2018-03-19T12:13:40.676Z,3.60
2018-03-19T12:16:08.949Z,3.80
2018-03-19T12:18:37.236Z,4.13
2018-03-19T12:21:06.390Z,4.57
2018-03-19T12:23:34.653Z,3.90
2018-03-19T12:26:03.033Z,4.30
2018-03-19T12:28:31.298Z,4.20
2018-03-19T12:30:59.896Z,4.57
2018-03-19T12:33:28.201Z,4.50
2018-03-19T12:35:56.580Z,4.00
2018-03-19T12:38:25.721Z,4.30
2018-03-19T12:40:54.955Z,4.37
2018-03-19T12:43:23.223Z,4.70
2018-03-19T12:45:51.513Z,4.00
2018-03-19T12:48:20.820Z,5.60
2018-03-19T12:50:49.089Z,4.27
2018-03-19T12:53:17.801Z,4.40
2018-03-19T12:55:46.133Z,4.33
2018-03-19T12:58:14.408Z,4.70
2018-03-19T13:00:43.578Z,5.50
2018-03-19T13:03:13.461Z,5.33
2018-03-19T13:05:42.345Z,4.93
2018-03-19T13:08:11.086Z,4.30
2018-03-19T13:10:40.892Z,4.90
2018-03-19T13:13:10.053Z,4.50
2018-03-19T13:15:38.344Z,4.00
2018-03-19T13:18:07.518Z,4.83
2018-03-19T13:20:35.754Z,4.73
2018-03-19T13:23:04.808Z,4.70
2018-03-19T13:25:33.108Z,5.10
2018-03-19T13:28:02.114Z,4.57
2018-03-19T13:30:31.169Z,4.23
2018-03-19T13:32:59.526Z,5.40
2018-03-19T13:35:27.925Z,4.20
2018-03-19T13:37:56.321Z,3.80
2018-03-19T13:40:24.608Z,4.10
2018-03-19T13:42:52.909Z,3.63
2018-03-19T13:45:22.286Z,4.20
2018-03-19T13:47:50.605Z,4.50
2018-03-19T13:50:19.636Z,4.10
2018-03-19T13:52:48.004Z,4.23
2018-03-19T13:55:16.362Z,3.90
2018-03-19T13:57:46.110Z,4.17
2018-03-19T14:00:14.416Z,4.77
2018-03-19T14:02:42.929Z,4.90
2018-03-19T14:05:12.312Z,4.60
2018-03-19T14:07:40.803Z,4.03
2018-03-19T14:10:09.910Z,4.33
2018-03-19T14:12:38.140Z,5.33
2018-03-19T14:15:06.662Z,4.97
2018-03-19T14:17:36.606Z,4.90
2018-03-19T14:20:04.906Z,4.40
2018-03-19T14:22:33.182Z,4.93
2018-03-19T14:25:01.480Z,5.33
2018-03-19T14:27:29.837Z,5.73
2018-03-19T14:29:58.245Z,5.20
2018-03-19T14:32:26.549Z,5.07
2018-03-19T14:34:55.649Z,5.23
2018-03-19T14:37:24.689Z,5.63
2018-03-19T14:39:53.576Z,5.43
2018-03-19T14:42:23.368Z,4.93
2018-03-19T14:44:53.224Z,6.67
2018-03-19T14:47:22.284Z,5.63
2018-03-19T14:49:50.892Z,5.10
2018-03-19T14:52:19.197Z,6.20
2018-03-19T14:54:47.496Z,5.37
2018-03-19T14:57:16.640Z,5.93
2018-03-19T14:59:45.932Z,6.20
2018-03-19T15:02:15.608Z,5.97
2018-03-19T15:04:44.686Z,5.60
2018-03-19T15:07:12.992Z,5.83
2018-03-19T15:09:42.054Z,5.63
2018-03-19T15:12:10.412Z,6.23
2018-03-19T15:14:38.712Z,5.83
2018-03-19T15:17:07.885Z,6.13
2018-03-19T15:19:37.715Z,6.17
2018-03-19T15:22:06.696Z,5.40
2018-03-19T15:24:35.089Z,6.40
2018-03-19T15:27:03.384Z,5.93
2018-03-19T15:29:33.239Z,6.03
2018-03-19T15:32:01.561Z,5.70
2018-03-19T15:34:29.941Z,5.13
2018-03-19T15:36:58.243Z,6.57
2018-03-19T15:39:26.531Z,4.90
2018-03-19T15:41:55.609Z,5.70
2018-03-19T15:44:24.096Z,6.93
2018-03-19T15:46:52.410Z,5.90
2018-03-19T15:49:20.703Z,5.50
2018-03-19T15:51:48.959Z,5.17
2018-03-19T15:54:17.272Z,5.93
2018-03-19T15:56:45.564Z,5.53
2018-03-19T15:59:13.859Z,5.53
2018-03-19T16:01:42.136Z,5.00
2018-03-19T16:04:11.110Z,4.80
2018-03-19T16:06:39.479Z,4.37
2018-03-19T16:09:07.756Z,5.37
2018-03-19T16:11:36.193Z,5.27
2018-03-19T16:14:05.267Z,4.70
2018-03-19T16:16:33.668Z,4.93
2018-03-19T16:19:02.721Z,5.10
2018-03-19T16:21:31.023Z,4.50
2018-03-19T16:23:59.300Z,4.90
2018-03-19T16:26:28.364Z,5.10
2018-03-19T16:28:56.945Z,4.93
2018-03-19T16:31:25.213Z,6.63
2018-03-19T16:33:53.513Z,6.73
2018-03-19T16:36:21.840Z,5.83
2018-03-19T16:38:50.898Z,6.70
2018-03-19T16:41:19.259Z,6.70
2018-03-19T16:43:47.592Z,7.63
2018-03-19T16:46:16.679Z,9.10
2018-03-19T16:48:45.780Z,7.20
2018-03-19T16:51:14.836Z,5.70
2018-03-19T16:53:43.128Z,5.43
2018-03-19T16:56:11.412Z,6.10
2018-03-19T16:58:39.711Z,4.77
2018-03-19T17:01:08.963Z,10.00
2018-03-19T17:03:37.350Z,6.40
2018-03-19T17:06:05.632Z,7.43
2018-03-19T17:08:34.256Z,5.80
2018-03-19T17:11:03.286Z,5.30
2018-03-19T17:13:31.568Z,4.90
2018-03-19T17:15:59.875Z,5.30
2018-03-19T17:18:28.165Z,5.20
2018-03-19T17:20:57.174Z,6.67
2018-03-19T17:23:26.569Z,5.00
2018-03-19T17:25:55.261Z,6.80
2018-03-19T17:28:24.294Z,6.13
2018-03-19T17:30:52.685Z,6.10
2018-03-19T17:33:21.010Z,7.33
2018-03-19T17:35:49.276Z,7.00
2018-03-19T17:38:18.241Z,7.63
2018-03-19T17:40:46.612Z,7.10
2018-03-19T17:43:14.995Z,6.10
2018-03-19T17:45:43.272Z,6.07
2018-03-19T17:48:11.571Z,5.47
2018-03-19T17:50:39.956Z,5.43
2018-03-19T17:53:08.548Z,5.73
2018-03-19T17:55:36.831Z,4.90
2018-03-19T17:58:05.180Z,5.90
2018-03-19T18:00:33.448Z,6.00
2018-03-19T18:03:02.174Z,5.10
2018-03-19T18:05:30.492Z,5.37
2018-03-19T18:07:59.225Z,4.13
2018-03-19T18:10:27.750Z,5.20
2018-03-19T18:12:56.808Z,5.43
2018-03-19T18:15:25.167Z,5.17
2018-03-19T18:17:53.462Z,4.80
2018-03-19T18:20:21.764Z,5.23
2018-03-19T18:22:50.550Z,5.67
2018-03-19T18:25:19.482Z,6.13
2018-03-19T18:27:48.396Z,5.53
2018-03-19T18:30:17.395Z,6.10
2018-03-19T18:32:45.656Z,5.70
2018-03-19T18:35:14.065Z,6.47
2018-03-19T18:37:42.426Z,5.93
2018-03-19T18:40:10.829Z,6.50
2018-03-19T18:42:39.331Z,6.97
2018-03-19T18:45:07.654Z,7.57
2018-03-19T18:47:36.017Z,6.90
2018-03-19T18:50:04.338Z,7.00
2018-03-19T18:52:32.728Z,9.87
2018-03-19T18:55:01.519Z,9.23
2018-03-19T18:57:30.209Z,8.30
2018-03-19T18:59:58.493Z,6.70
2018-03-19T19:02:26.774Z,6.07
2018-03-19T19:04:55.620Z,5.90
2018-03-19T19:07:24.431Z,6.13
2018-03-19T19:09:52.717Z,6.17
2018-03-19T19:12:21.009Z,7.60
2018-03-19T19:14:49.332Z,6.07
2018-03-19T19:17:17.637Z,6.83
2018-03-19T19:19:46.037Z,6.27
2018-03-19T19:22:14.356Z,5.83
2018-03-19T19:24:43.417Z,5.97
2018-03-19T19:27:11.903Z,6.53
2018-03-19T19:29:40.209Z,6.83
2018-03-19T19:32:09.270Z,5.57
2018-03-19T19:34:37.627Z,7.47
2018-03-19T19:37:06.215Z,7.77
2018-03-19T19:39:34.521Z,8.73
2018-03-19T19:42:03.522Z,7.40
2018-03-19T19:44:32.662Z,6.40
2018-03-19T19:47:00.957Z,6.90
2018-03-19T19:49:29.232Z,6.67
2018-03-19T19:51:57.632Z,5.40
2018-03-19T19:54:26.104Z,6.13
2018-03-19T19:56:54.940Z,5.00
2018-03-19T19:59:24.776Z,6.60
2018-03-19T20:01:53.585Z,6.63
2018-03-19T20:04:21.903Z,5.90
2018-03-19T20:06:50.366Z,5.63
2018-03-19T20:09:18.669Z,5.23
2018-03-19T20:11:46.977Z,6.07
2018-03-19T20:14:16.088Z,5.60
2018-03-19T20:16:44.372Z,5.53
2018-03-19T20:19:12.664Z,7.70
2018-03-19T20:21:42.605Z,4.50
2018-03-19T20:24:11.166Z,5.10
2018-03-19T20:26:39.487Z,6.10
2018-03-19T20:29:07.774Z,5.63
2018-03-19T20:31:36.932Z,6.73
2018-03-19T20:34:05.218Z,6.40
2018-03-19T20:36:33.617Z,6.13
2018-03-19T20:39:01.989Z,6.63
2018-03-19T20:41:30.319Z,5.63
2018-03-19T20:43:58.616Z,4.63
2018-03-19T20:46:26.907Z,5.53
2018-03-19T20:48:55.810Z,5.53
2018-03-19T20:51:24.885Z,5.87
2018-03-19T20:53:53.257Z,5.40
2018-03-19T20:56:21.549Z,5.40
2018-03-19T20:58:49.881Z,5.60
2018-03-19T21:01:19.329Z,5.60
2018-03-19T21:03:48.345Z,5.57
2018-03-19T21:06:16.656Z,4.87
2018-03-19T21:08:45.721Z,4.83
2018-03-19T21:11:14.803Z,5.47
2018-03-19T21:13:43.550Z,5.10
2018-03-19T21:16:11.921Z,6.20
2018-03-19T21:18:40.964Z,5.80
2018-03-19T21:21:09.362Z,5.40
2018-03-19T21:23:37.741Z,4.83
2018-03-19T21:26:06.040Z,6.13
2018-03-19T21:28:35.305Z,5.20
2018-03-19T21:31:03.594Z,6.40
2018-03-19T21:33:31.878Z,5.50
2018-03-19T21:36:01.280Z,5.87
2018-03-19T21:38:29.574Z,5.40
2018-03-19T21:40:57.857Z,5.20
2018-03-19T21:43:27.054Z,6.17
2018-03-19T21:45:55.816Z,5.07
2018-03-19T21:48:24.181Z,6.73
2018-03-19T21:50:52.465Z,5.77
2018-03-19T21:53:20.765Z,4.27
2018-03-19T21:55:50.004Z,6.47
2018-03-19T21:58:18.348Z,5.57
2018-03-19T22:00:46.636Z,5.67
2018-03-19T22:03:16.153Z,5.37
2018-03-19T22:05:45.246Z,6.00
2018-03-19T22:08:14.319Z,6.43
2018-03-19T22:10:43.778Z,5.93
2018-03-19T22:13:12.364Z,5.80
2018-03-19T22:15:40.669Z,5.53
2018-03-19T22:18:08.946Z,5.90
2018-03-19T22:20:37.257Z,6.30
2018-03-19T22:23:05.780Z,6.03
2018-03-19T22:25:34.056Z,5.70
2018-03-19T22:28:02.339Z,6.33
2018-03-19T22:30:33.324Z,6.00
2018-03-19T22:33:01.670Z,6.13
2018-03-19T22:35:30.282Z,6.27
2018-03-19T22:37:59.148Z,6.20
2018-03-19T22:40:27.658Z,6.93
2018-03-19T22:42:55.998Z,7.27
2018-03-19T22:45:24.310Z,7.00
2018-03-19T22:47:53.525Z,6.93
2018-03-19T22:50:21.809Z,8.07
2018-03-19T22:52:50.868Z,7.33
2018-03-19T22:55:19.147Z,7.23
2018-03-19T22:57:47.727Z,7.23
2018-03-19T23:00:16.018Z,7.27
2018-03-19T23:02:44.292Z,9.00
2018-03-19T23:05:28.047Z,8.40
2018-03-19T23:07:56.364Z,8.80
2018-03-19T23:10:26.181Z,7.97
2018-03-19T23:12:54.969Z,8.23
2018-03-19T23:15:24.659Z,9.23
2018-03-19T23:17:54.028Z,7.80
2018-03-19T23:20:22.707Z,9.93
2018-03-19T23:22:50.976Z,7.93
2018-03-19T23:25:19.272Z,9.17
2018-03-19T23:27:48.686Z,8.30
2018-03-19T23:30:16.953Z,9.10
2018-03-19T23:32:45.229Z,8.87
2018-03-19T23:35:13.547Z,8.47
2018-03-19T23:37:42.648Z,9.07
2018-03-19T23:40:12.276Z,9.07
2018-03-19T23:42:40.572Z,9.40
2018-03-19T23:45:08.948Z,9.50
2018-03-19T23:47:38.799Z,10.13
2018-03-19T23:50:08.079Z,10.10
2018-03-19T23:52:36.369Z,10.33
2018-03-19T23:55:04.863Z,10.10
2018-03-19T23:57:33.949Z,12.87
